DLH2TT ESGG-EDDM
Flight info
| Callsign | DLH2TT |
|---|---|
| Flight time | 1h 30m |
| Altitude | 37000 |
| Route | TOPLA L996 ERNOV DCT NIKDA/N0432F380 DCT MAG/N0431F370 DCT ALOSO T703 SODRO/N0413F310 T703 LULAR/N0392F300 T105 LANDU LANDU2A |
| Aircraft | A20N/M-SDE2E3FGHIRWXY/LB1 |
Departure
| Time | 2026-04-30 06:08 |
|---|---|
| Airport | Göteborg Landvetter Airport (ESGG) |
Arrival
| Time | 2026-04-30 07:38 |
|---|---|
| Airport | Munich Airport (EDDM) |
| Time | Latitude | Longitude | Altitude | Speed | Heading |
|---|---|---|---|---|---|
| 2026-04-30 05:44 | 57.66934 | 12.29465 | 518 ft | 0 kts | 116° |
| 2026-04-30 05:59 | 57.66936 | 12.29459 | 518 ft | 3 kts | 116° |
| 2026-04-30 05:59 | 57.66947 | 12.29414 | 517 ft | 4 kts | 116° |
| 2026-04-30 05:59 | 57.66957 | 12.29368 | 516 ft | 4 kts | 91° |
| 2026-04-30 06:00 | 57.66950 | 12.29327 | 515 ft | 4 kts | 31° |
| 2026-04-30 06:00 | 57.66945 | 12.29322 | 516 ft | 1 kts | 26° |
| 2026-04-30 06:00 | 57.66946 | 12.29322 | 515 ft | 0 kts | 26° |
| 2026-04-30 06:03 | 57.66955 | 12.29332 | 514 ft | 4 kts | 27° |
| 2026-04-30 06:03 | 57.66989 | 12.29365 | 514 ft | 8 kts | 26° |
| 2026-04-30 06:03 | 57.67051 | 12.29420 | 513 ft | 12 kts | 25° |
| 2026-04-30 06:04 | 57.67134 | 12.29496 | 513 ft | 15 kts | 26° |
| 2026-04-30 06:04 | 57.67233 | 12.29586 | 512 ft | 11 kts | 26° |
| 2026-04-30 06:04 | 57.67309 | 12.29652 | 511 ft | 13 kts | 26° |
| 2026-04-30 06:05 | 57.67421 | 12.29540 | 511 ft | 11 kts | 354° |
| 2026-04-30 06:05 | 57.67496 | 12.29591 | 511 ft | 12 kts | 19° |
| 2026-04-30 06:05 | 57.67545 | 12.29574 | 513 ft | 1 kts | 311° |
| 2026-04-30 06:05 | 57.67557 | 12.29538 | 513 ft | 6 kts | 300° |
| 2026-04-30 06:06 | 57.67581 | 12.29427 | 511 ft | 9 kts | 289° |
| 2026-04-30 06:06 | 57.67592 | 12.29355 | 511 ft | 4 kts | 281° |
| 2026-04-30 06:06 | 57.67592 | 12.29349 | 511 ft | 0 kts | 280° |
| 2026-04-30 06:06 | 57.67591 | 12.29314 | 511 ft | 6 kts | 262° |
| 2026-04-30 06:07 | 57.67583 | 12.29192 | 511 ft | 12 kts | 262° |
| 2026-04-30 06:07 | 57.67513 | 12.29097 | 509 ft | 15 kts | 207° |
| 2026-04-30 06:07 | 57.67291 | 12.28892 | 512 ft | 68 kts | 206° |
| 2026-04-30 06:07 | 57.66683 | 12.28335 | 514 ft | 124 kts | 206° |
| 2026-04-30 06:08 | 57.65773 | 12.27506 | 649 ft | 157 kts | 206° |
| 2026-04-30 06:08 | 57.64789 | 12.26642 | 1295 ft | 157 kts | 209° |
| 2026-04-30 06:08 | 57.63793 | 12.25771 | 1971 ft | 160 kts | 208° |
| 2026-04-30 06:08 | 57.62711 | 12.24969 | 2426 ft | 175 kts | 205° |
| 2026-04-30 06:09 | 57.61525 | 12.24194 | 2926 ft | 186 kts | 202° |
| 2026-04-30 06:09 | 57.60255 | 12.23457 | 3499 ft | 197 kts | 198° |
| 2026-04-30 06:09 | 57.58853 | 12.23189 | 4086 ft | 210 kts | 183° |
| 2026-04-30 06:09 | 57.57350 | 12.23183 | 4671 ft | 221 kts | 180° |
| 2026-04-30 06:10 | 57.55780 | 12.23139 | 5296 ft | 230 kts | 182° |
| 2026-04-30 06:10 | 57.54159 | 12.23353 | 5921 ft | 239 kts | 170° |
| 2026-04-30 06:10 | 57.52433 | 12.23818 | 6290 ft | 262 kts | 173° |
| 2026-04-30 06:10 | 57.50541 | 12.24192 | 6723 ft | 284 kts | 173° |
| 2026-04-30 06:11 | 57.48536 | 12.24614 | 7407 ft | 293 kts | 172° |
| 2026-04-30 06:11 | 57.46500 | 12.25097 | 8125 ft | 297 kts | 171° |
| 2026-04-30 06:11 | 57.44437 | 12.25624 | 8507 ft | 301 kts | 171° |
| 2026-04-30 06:11 | 57.42368 | 12.26177 | 8761 ft | 301 kts | 170° |
| 2026-04-30 06:12 | 57.40285 | 12.26740 | 9015 ft | 303 kts | 170° |
| 2026-04-30 06:12 | 57.38182 | 12.27309 | 9474 ft | 308 kts | 170° |
| 2026-04-30 06:12 | 57.36064 | 12.27880 | 10390 ft | 309 kts | 170° |
| 2026-04-30 06:12 | 57.33925 | 12.28455 | 11138 ft | 313 kts | 169° |
| 2026-04-30 06:13 | 57.31784 | 12.29030 | 11871 ft | 318 kts | 169° |
| 2026-04-30 06:13 | 57.29547 | 12.29631 | 12345 ft | 335 kts | 169° |
| 2026-04-30 06:13 | 57.27165 | 12.30274 | 12568 ft | 357 kts | 169° |
| 2026-04-30 06:13 | 57.24640 | 12.30954 | 12973 ft | 372 kts | 169° |
| 2026-04-30 06:14 | 57.22064 | 12.31640 | 13693 ft | 376 kts | 169° |
| 2026-04-30 06:14 | 57.19479 | 12.32326 | 14387 ft | 381 kts | 169° |
| 2026-04-30 06:14 | 57.16838 | 12.33027 | 15036 ft | 385 kts | 169° |
| 2026-04-30 06:14 | 57.14170 | 12.33733 | 15685 ft | 389 kts | 169° |
| 2026-04-30 06:15 | 57.11476 | 12.34437 | 16320 ft | 394 kts | 169° |
| 2026-04-30 06:15 | 57.08739 | 12.35120 | 16954 ft | 398 kts | 169° |
| 2026-04-30 06:15 | 57.05981 | 12.35798 | 17570 ft | 402 kts | 169° |
| 2026-04-30 06:15 | 57.03189 | 12.36484 | 18170 ft | 407 kts | 169° |
| 2026-04-30 06:16 | 57.00368 | 12.37179 | 18786 ft | 411 kts | 169° |
| 2026-04-30 06:16 | 56.97524 | 12.37883 | 19302 ft | 415 kts | 169° |
| 2026-04-30 06:16 | 56.94649 | 12.38593 | 19839 ft | 418 kts | 169° |
| 2026-04-30 06:16 | 56.91751 | 12.39309 | 20364 ft | 422 kts | 169° |
| 2026-04-30 06:17 | 56.88831 | 12.40029 | 20885 ft | 426 kts | 169° |
| 2026-04-30 06:17 | 56.85877 | 12.40755 | 21391 ft | 430 kts | 169° |
| 2026-04-30 06:17 | 56.83913 | 12.41238 | 21739 ft | 432 kts | 169° |
| 2026-04-30 06:17 | 56.80954 | 12.41963 | 22247 ft | 435 kts | 169° |
| 2026-04-30 06:18 | 56.77940 | 12.42701 | 22742 ft | 439 kts | 169° |
| 2026-04-30 06:18 | 56.74901 | 12.43445 | 23240 ft | 443 kts | 169° |
| 2026-04-30 06:18 | 56.71834 | 12.44193 | 23726 ft | 446 kts | 169° |
| 2026-04-30 06:18 | 56.68782 | 12.44937 | 24181 ft | 450 kts | 169° |
| 2026-04-30 06:19 | 56.65680 | 12.45692 | 24619 ft | 452 kts | 169° |
| 2026-04-30 06:19 | 56.62553 | 12.46451 | 25053 ft | 455 kts | 169° |
| 2026-04-30 06:19 | 56.59414 | 12.47213 | 25471 ft | 457 kts | 169° |
| 2026-04-30 06:19 | 56.56210 | 12.47989 | 25883 ft | 460 kts | 169° |
| 2026-04-30 06:20 | 56.53029 | 12.48758 | 26289 ft | 462 kts | 169° |
| 2026-04-30 06:20 | 56.49830 | 12.49530 | 26684 ft | 465 kts | 169° |
| 2026-04-30 06:20 | 56.46615 | 12.50304 | 27083 ft | 467 kts | 169° |
| 2026-04-30 06:20 | 56.43385 | 12.51080 | 27462 ft | 470 kts | 170° |
| 2026-04-30 06:21 | 56.40138 | 12.51859 | 27827 ft | 472 kts | 170° |
| 2026-04-30 06:21 | 56.36874 | 12.52638 | 28191 ft | 474 kts | 170° |
| 2026-04-30 06:21 | 56.33590 | 12.53420 | 28531 ft | 477 kts | 170° |
| 2026-04-30 06:21 | 56.30298 | 12.54202 | 28876 ft | 479 kts | 170° |
| 2026-04-30 06:22 | 56.26988 | 12.54987 | 29203 ft | 481 kts | 170° |
| 2026-04-30 06:22 | 56.23654 | 12.55777 | 29520 ft | 484 kts | 170° |
| 2026-04-30 06:22 | 56.20311 | 12.56568 | 29839 ft | 486 kts | 170° |
| 2026-04-30 06:22 | 56.16930 | 12.57067 | 30115 ft | 490 kts | 178° |
| 2026-04-30 06:23 | 56.13518 | 12.56805 | 30425 ft | 493 kts | 185° |
| 2026-04-30 06:23 | 56.10149 | 12.56135 | 30700 ft | 495 kts | 185° |
| 2026-04-30 06:23 | 56.06675 | 12.55443 | 30988 ft | 496 kts | 185° |
| 2026-04-30 06:23 | 56.03279 | 12.54777 | 31263 ft | 498 kts | 185° |
| 2026-04-30 06:24 | 55.99834 | 12.54113 | 31536 ft | 499 kts | 185° |
| 2026-04-30 06:24 | 55.96384 | 12.53454 | 31867 ft | 499 kts | 185° |
| 2026-04-30 06:24 | 55.92923 | 12.52797 | 32237 ft | 498 kts | 185° |
| 2026-04-30 06:24 | 55.89479 | 12.52144 | 32599 ft | 497 kts | 185° |
| 2026-04-30 06:25 | 55.86001 | 12.51486 | 32965 ft | 496 kts | 185° |
| 2026-04-30 06:25 | 55.82614 | 12.50847 | 33307 ft | 495 kts | 184° |
| 2026-04-30 06:25 | 55.79199 | 12.50203 | 33643 ft | 494 kts | 184° |
| 2026-04-30 06:25 | 55.75773 | 12.49557 | 33975 ft | 493 kts | 184° |
| 2026-04-30 06:26 | 55.72360 | 12.48916 | 34293 ft | 493 kts | 184° |
| 2026-04-30 06:26 | 55.68955 | 12.48277 | 34579 ft | 492 kts | 184° |
| 2026-04-30 06:26 | 55.65566 | 12.47643 | 34841 ft | 491 kts | 184° |
| 2026-04-30 06:26 | 55.62175 | 12.47009 | 35134 ft | 490 kts | 184° |
| 2026-04-30 06:27 | 55.58785 | 12.46376 | 35388 ft | 489 kts | 184° |
| 2026-04-30 06:27 | 55.55408 | 12.45747 | 35630 ft | 488 kts | 184° |
| 2026-04-30 06:27 | 55.52034 | 12.45119 | 35861 ft | 487 kts | 184° |
| 2026-04-30 06:27 | 55.48665 | 12.44493 | 36069 ft | 487 kts | 184° |
| 2026-04-30 06:28 | 55.45300 | 12.43870 | 36291 ft | 486 kts | 184° |
| 2026-04-30 06:28 | 55.41944 | 12.43249 | 36507 ft | 485 kts | 184° |
| 2026-04-30 06:28 | 55.38582 | 12.42627 | 36701 ft | 485 kts | 184° |
| 2026-04-30 06:28 | 55.35234 | 12.42010 | 36893 ft | 484 kts | 184° |
| 2026-04-30 06:29 | 55.31980 | 12.41411 | 37080 ft | 483 kts | 185° |
| 2026-04-30 06:29 | 55.28548 | 12.40780 | 37269 ft | 483 kts | 185° |
| 2026-04-30 06:29 | 55.25207 | 12.40167 | 37445 ft | 482 kts | 185° |
| 2026-04-30 06:30 | 55.18538 | 12.38946 | 37489 ft | 481 kts | 185° |
| 2026-04-30 06:30 | 55.11867 | 12.37728 | 37491 ft | 482 kts | 185° |
| 2026-04-30 06:31 | 55.05194 | 12.36515 | 37493 ft | 482 kts | 184° |
| 2026-04-30 06:31 | 54.98526 | 12.35307 | 37493 ft | 482 kts | 184° |
| 2026-04-30 06:32 | 54.91847 | 12.34100 | 37489 ft | 482 kts | 184° |
| 2026-04-30 06:32 | 54.85167 | 12.32898 | 37494 ft | 483 kts | 184° |
| 2026-04-30 06:33 | 54.78486 | 12.31699 | 37496 ft | 483 kts | 184° |
| 2026-04-30 06:33 | 54.71802 | 12.30504 | 37492 ft | 483 kts | 184° |
| 2026-04-30 06:34 | 54.65144 | 12.29317 | 37498 ft | 483 kts | 184° |
| 2026-04-30 06:34 | 54.58457 | 12.28114 | 37498 ft | 483 kts | 185° |
| 2026-04-30 06:35 | 54.51782 | 12.26773 | 37498 ft | 483 kts | 185° |
| 2026-04-30 06:35 | 54.45094 | 12.25421 | 37499 ft | 484 kts | 185° |
| 2026-04-30 06:36 | 54.38406 | 12.24091 | 37503 ft | 484 kts | 185° |
| 2026-04-30 06:36 | 54.31717 | 12.22770 | 37502 ft | 484 kts | 185° |
| 2026-04-30 06:37 | 54.25023 | 12.21453 | 37503 ft | 484 kts | 185° |
| 2026-04-30 06:37 | 54.18326 | 12.20139 | 37507 ft | 485 kts | 185° |
| 2026-04-30 06:38 | 54.11628 | 12.18829 | 37511 ft | 485 kts | 185° |
| 2026-04-30 06:38 | 54.04963 | 12.17531 | 37509 ft | 485 kts | 185° |
| 2026-04-30 06:39 | 53.98255 | 12.16227 | 37514 ft | 485 kts | 185° |
| 2026-04-30 06:39 | 53.91544 | 12.14928 | 37515 ft | 486 kts | 184° |
| 2026-04-30 06:40 | 53.84834 | 12.13632 | 37519 ft | 486 kts | 184° |
| 2026-04-30 06:40 | 53.78112 | 12.12339 | 37521 ft | 486 kts | 184° |
| 2026-04-30 06:41 | 53.71358 | 12.11044 | 37517 ft | 486 kts | 184° |
| 2026-04-30 06:41 | 53.64710 | 12.09773 | 37525 ft | 485 kts | 184° |
| 2026-04-30 06:42 | 53.58005 | 12.08495 | 37522 ft | 485 kts | 184° |
| 2026-04-30 06:42 | 53.51294 | 12.07221 | 37522 ft | 485 kts | 184° |
| 2026-04-30 06:43 | 53.44589 | 12.05951 | 37520 ft | 485 kts | 184° |
| 2026-04-30 06:43 | 53.37887 | 12.04686 | 37520 ft | 484 kts | 184° |
| 2026-04-30 06:44 | 53.31189 | 12.03426 | 37516 ft | 484 kts | 184° |
| 2026-04-30 06:44 | 53.24496 | 12.02170 | 37514 ft | 484 kts | 184° |
| 2026-04-30 06:45 | 53.17803 | 12.00919 | 37513 ft | 484 kts | 184° |
| 2026-04-30 06:45 | 53.11113 | 11.99673 | 37516 ft | 484 kts | 184° |
| 2026-04-30 06:46 | 53.04419 | 11.98429 | 37516 ft | 484 kts | 184° |
| 2026-04-30 06:46 | 52.97725 | 11.97190 | 37511 ft | 484 kts | 184° |
| 2026-04-30 06:47 | 52.91028 | 11.95953 | 37515 ft | 484 kts | 184° |
| 2026-04-30 06:47 | 52.84338 | 11.94722 | 37517 ft | 484 kts | 184° |
| 2026-04-30 06:48 | 52.77632 | 11.93492 | 37517 ft | 485 kts | 184° |
| 2026-04-30 06:48 | 52.70930 | 11.92266 | 37519 ft | 485 kts | 184° |
| 2026-04-30 06:49 | 52.64216 | 11.91043 | 37524 ft | 485 kts | 184° |
| 2026-04-30 06:49 | 52.57509 | 11.89823 | 37524 ft | 485 kts | 184° |
| 2026-04-30 06:50 | 52.50785 | 11.88604 | 37520 ft | 486 kts | 184° |
| 2026-04-30 06:50 | 52.44067 | 11.87390 | 37522 ft | 486 kts | 184° |
| 2026-04-30 06:51 | 52.37342 | 11.86179 | 37522 ft | 486 kts | 184° |
| 2026-04-30 06:51 | 52.30640 | 11.84976 | 37523 ft | 487 kts | 184° |
| 2026-04-30 06:52 | 52.23906 | 11.83770 | 37525 ft | 487 kts | 184° |
| 2026-04-30 06:52 | 52.17169 | 11.82567 | 37525 ft | 487 kts | 183° |
| 2026-04-30 06:53 | 52.10445 | 11.81371 | 37526 ft | 487 kts | 183° |
| 2026-04-30 06:53 | 52.03705 | 11.80175 | 37525 ft | 487 kts | 183° |
| 2026-04-30 06:54 | 51.96974 | 11.79222 | 37528 ft | 485 kts | 179° |
| 2026-04-30 06:54 | 51.90231 | 11.78742 | 37530 ft | 485 kts | 179° |
| 2026-04-30 06:55 | 51.83496 | 11.78250 | 37533 ft | 484 kts | 179° |
| 2026-04-30 06:55 | 51.76771 | 11.77757 | 37527 ft | 484 kts | 179° |
| 2026-04-30 06:56 | 51.70037 | 11.77264 | 37521 ft | 484 kts | 179° |
| 2026-04-30 06:56 | 51.63307 | 11.76773 | 37517 ft | 484 kts | 179° |
| 2026-04-30 06:57 | 51.56582 | 11.76285 | 37511 ft | 484 kts | 179° |
| 2026-04-30 06:57 | 51.49862 | 11.75797 | 37508 ft | 484 kts | 179° |
| 2026-04-30 06:58 | 51.43139 | 11.75311 | 37507 ft | 484 kts | 179° |
| 2026-04-30 06:58 | 51.36415 | 11.74826 | 37507 ft | 484 kts | 179° |
| 2026-04-30 06:59 | 51.29690 | 11.74343 | 37499 ft | 484 kts | 179° |
| 2026-04-30 06:59 | 51.24094 | 11.73942 | 37494 ft | 484 kts | 179° |
| 2026-04-30 07:00 | 51.17372 | 11.73461 | 37492 ft | 484 kts | 179° |
| 2026-04-30 07:00 | 51.10635 | 11.72982 | 37485 ft | 484 kts | 179° |
| 2026-04-30 07:01 | 51.03907 | 11.72503 | 37488 ft | 484 kts | 179° |
| 2026-04-30 07:01 | 50.97167 | 11.72025 | 37484 ft | 485 kts | 179° |
| 2026-04-30 07:02 | 50.90432 | 11.71549 | 37489 ft | 485 kts | 179° |
| 2026-04-30 07:02 | 50.83688 | 11.71074 | 37485 ft | 485 kts | 179° |
| 2026-04-30 07:03 | 50.76941 | 11.70600 | 37488 ft | 485 kts | 179° |
| 2026-04-30 07:03 | 50.70253 | 11.71098 | 37481 ft | 478 kts | 166° |
| 2026-04-30 07:04 | 50.63871 | 11.73663 | 37476 ft | 471 kts | 156° |
| 2026-04-30 07:04 | 50.57651 | 11.76945 | 37471 ft | 471 kts | 156° |
| 2026-04-30 07:05 | 50.48308 | 11.81779 | 37466 ft | 472 kts | 156° |
| 2026-04-30 07:05 | 50.42240 | 11.85561 | 37459 ft | 468 kts | 150° |
| 2026-04-30 07:06 | 50.36276 | 11.89625 | 37455 ft | 468 kts | 150° |
| 2026-04-30 07:06 | 50.30305 | 11.93664 | 37459 ft | 468 kts | 151° |
| 2026-04-30 07:07 | 50.24327 | 11.97690 | 37461 ft | 468 kts | 151° |
| 2026-04-30 07:07 | 50.18347 | 12.01710 | 37459 ft | 468 kts | 151° |
| 2026-04-30 07:08 | 50.12367 | 12.05723 | 37459 ft | 468 kts | 151° |
| 2026-04-30 07:08 | 50.06426 | 12.09698 | 37461 ft | 468 kts | 151° |
| 2026-04-30 07:09 | 50.00404 | 12.13712 | 37464 ft | 468 kts | 151° |
| 2026-04-30 07:09 | 49.97444 | 12.15679 | 37325 ft | 468 kts | 151° |
| 2026-04-30 07:09 | 49.94456 | 12.17662 | 37073 ft | 467 kts | 151° |
| 2026-04-30 07:10 | 49.91436 | 12.19662 | 36807 ft | 465 kts | 150° |
| 2026-04-30 07:10 | 49.88452 | 12.21638 | 36554 ft | 465 kts | 150° |
| 2026-04-30 07:10 | 49.85453 | 12.23349 | 36216 ft | 471 kts | 159° |
| 2026-04-30 07:10 | 49.82190 | 12.24271 | 35604 ft | 481 kts | 169° |
| 2026-04-30 07:11 | 49.78843 | 12.24703 | 34840 ft | 485 kts | 169° |
| 2026-04-30 07:11 | 49.75454 | 12.25068 | 33917 ft | 490 kts | 170° |
| 2026-04-30 07:11 | 49.72034 | 12.25418 | 32909 ft | 495 kts | 170° |
| 2026-04-30 07:11 | 49.68750 | 12.25751 | 31969 ft | 499 kts | 170° |
| 2026-04-30 07:12 | 49.65169 | 12.26115 | 31032 ft | 501 kts | 170° |
| 2026-04-30 07:12 | 49.61684 | 12.26470 | 29885 ft | 500 kts | 171° |
| 2026-04-30 07:12 | 49.58228 | 12.26823 | 28735 ft | 497 kts | 171° |
| 2026-04-30 07:12 | 49.54804 | 12.27172 | 27936 ft | 487 kts | 171° |
| 2026-04-30 07:13 | 49.51469 | 12.27508 | 27378 ft | 473 kts | 171° |
| 2026-04-30 07:13 | 49.48233 | 12.27836 | 26831 ft | 460 kts | 171° |
| 2026-04-30 07:13 | 49.45079 | 12.28160 | 26314 ft | 451 kts | 170° |
| 2026-04-30 07:13 | 49.41954 | 12.28487 | 25806 ft | 452 kts | 171° |
| 2026-04-30 07:14 | 49.38792 | 12.28821 | 25312 ft | 455 kts | 171° |
| 2026-04-30 07:14 | 49.35652 | 12.29146 | 24801 ft | 451 kts | 171° |
| 2026-04-30 07:14 | 49.32533 | 12.29465 | 24318 ft | 447 kts | 171° |
| 2026-04-30 07:14 | 49.29438 | 12.29779 | 23783 ft | 443 kts | 171° |
| 2026-04-30 07:15 | 49.26378 | 12.30090 | 23218 ft | 439 kts | 171° |
| 2026-04-30 07:15 | 49.23350 | 12.30398 | 22647 ft | 435 kts | 171° |
| 2026-04-30 07:15 | 49.20343 | 12.30704 | 22102 ft | 430 kts | 172° |
| 2026-04-30 07:15 | 49.17371 | 12.31005 | 21621 ft | 425 kts | 172° |
| 2026-04-30 07:16 | 49.14461 | 12.31298 | 21342 ft | 416 kts | 172° |
| 2026-04-30 07:16 | 49.11569 | 12.31591 | 21088 ft | 417 kts | 172° |
| 2026-04-30 07:16 | 49.08668 | 12.31887 | 20824 ft | 418 kts | 172° |
| 2026-04-30 07:16 | 49.05771 | 12.32180 | 20586 ft | 415 kts | 172° |
| 2026-04-30 07:17 | 49.02908 | 12.32468 | 20344 ft | 412 kts | 172° |
| 2026-04-30 07:17 | 49.00046 | 12.32756 | 20097 ft | 410 kts | 172° |
| 2026-04-30 07:17 | 48.94380 | 12.33325 | 19558 ft | 406 kts | 172° |
| 2026-04-30 07:18 | 48.91552 | 12.33610 | 18921 ft | 409 kts | 172° |
| 2026-04-30 07:18 | 48.88704 | 12.33898 | 18318 ft | 408 kts | 173° |
| 2026-04-30 07:18 | 48.85899 | 12.34178 | 17804 ft | 403 kts | 173° |
| 2026-04-30 07:18 | 48.83111 | 12.34456 | 17286 ft | 398 kts | 173° |
| 2026-04-30 07:19 | 48.80361 | 12.34642 | 16790 ft | 395 kts | 178° |
| 2026-04-30 07:19 | 48.77636 | 12.34268 | 16295 ft | 393 kts | 188° |
| 2026-04-30 07:19 | 48.74990 | 12.33330 | 15825 ft | 389 kts | 193° |
| 2026-04-30 07:19 | 48.72385 | 12.32300 | 15364 ft | 384 kts | 193° |
| 2026-04-30 07:20 | 48.69809 | 12.31296 | 14891 ft | 381 kts | 193° |
| 2026-04-30 07:20 | 48.67270 | 12.30316 | 14456 ft | 377 kts | 193° |
| 2026-04-30 07:20 | 48.64734 | 12.29342 | 13997 ft | 370 kts | 193° |
| 2026-04-30 07:20 | 48.62285 | 12.28404 | 13534 ft | 358 kts | 193° |
| 2026-04-30 07:21 | 48.59899 | 12.27492 | 13101 ft | 347 kts | 193° |
| 2026-04-30 07:21 | 48.57560 | 12.26590 | 12758 ft | 349 kts | 193° |
| 2026-04-30 07:21 | 48.55215 | 12.25667 | 12450 ft | 350 kts | 193° |
| 2026-04-30 07:21 | 48.52850 | 12.24732 | 12197 ft | 351 kts | 193° |
| 2026-04-30 07:22 | 48.48708 | 12.21126 | 11679 ft | 348 kts | 232° |
| 2026-04-30 07:22 | 48.47579 | 12.17965 | 11437 ft | 343 kts | 255° |
| 2026-04-30 07:22 | 48.47190 | 12.14458 | 11185 ft | 336 kts | 268° |
| 2026-04-30 07:23 | 48.47083 | 12.10988 | 10925 ft | 327 kts | 270° |
| 2026-04-30 07:23 | 48.46992 | 12.07619 | 10691 ft | 319 kts | 269° |
| 2026-04-30 07:23 | 48.46847 | 12.04318 | 10441 ft | 313 kts | 267° |
| 2026-04-30 07:23 | 48.46655 | 12.01127 | 10188 ft | 307 kts | 266° |
| 2026-04-30 07:24 | 48.46431 | 11.97920 | 9906 ft | 301 kts | 265° |
| 2026-04-30 07:24 | 48.46202 | 11.94855 | 9673 ft | 296 kts | 264° |
| 2026-04-30 07:24 | 48.45966 | 11.91759 | 9506 ft | 295 kts | 264° |
| 2026-04-30 07:24 | 48.45730 | 11.88662 | 9362 ft | 301 kts | 264° |
| 2026-04-30 07:25 | 48.45490 | 11.85529 | 9205 ft | 308 kts | 264° |
| 2026-04-30 07:25 | 48.45239 | 11.82278 | 9057 ft | 308 kts | 264° |
| 2026-04-30 07:25 | 48.44991 | 11.79092 | 8897 ft | 305 kts | 263° |
| 2026-04-30 07:25 | 48.44748 | 11.75937 | 8746 ft | 302 kts | 263° |
| 2026-04-30 07:26 | 48.44507 | 11.72821 | 8582 ft | 298 kts | 263° |
| 2026-04-30 07:26 | 48.44269 | 11.69767 | 8420 ft | 297 kts | 263° |
| 2026-04-30 07:26 | 48.44028 | 11.66668 | 8280 ft | 299 kts | 263° |
| 2026-04-30 07:26 | 48.43781 | 11.63503 | 8120 ft | 302 kts | 263° |
| 2026-04-30 07:27 | 48.43537 | 11.60359 | 7973 ft | 301 kts | 263° |
| 2026-04-30 07:27 | 48.43295 | 11.57251 | 7819 ft | 297 kts | 262° |
| 2026-04-30 07:27 | 48.43055 | 11.54201 | 7709 ft | 291 kts | 262° |
| 2026-04-30 07:27 | 48.42815 | 11.51171 | 7607 ft | 293 kts | 262° |
| 2026-04-30 07:28 | 48.42569 | 11.48093 | 7523 ft | 298 kts | 262° |
| 2026-04-30 07:28 | 48.42321 | 11.44993 | 7408 ft | 298 kts | 262° |
| 2026-04-30 07:28 | 48.42076 | 11.41918 | 7311 ft | 294 kts | 262° |
| 2026-04-30 07:28 | 48.41827 | 11.38860 | 7204 ft | 294 kts | 262° |
| 2026-04-30 07:29 | 48.41577 | 11.35809 | 7109 ft | 294 kts | 262° |
| 2026-04-30 07:29 | 48.41333 | 11.32763 | 7001 ft | 292 kts | 262° |
| 2026-04-30 07:29 | 48.41084 | 11.29726 | 6929 ft | 293 kts | 258° |
| 2026-04-30 07:29 | 48.40365 | 11.26901 | 6829 ft | 289 kts | 232° |
| 2026-04-30 07:30 | 48.37112 | 11.24131 | 6790 ft | 273 kts | 177° |
| 2026-04-30 07:30 | 48.35309 | 11.24663 | 6621 ft | 260 kts | 150° |
| 2026-04-30 07:30 | 48.33949 | 11.26336 | 6297 ft | 251 kts | 122° |
| 2026-04-30 07:31 | 48.33001 | 11.28479 | 6197 ft | 241 kts | 122° |
| 2026-04-30 07:31 | 48.32047 | 11.30489 | 6108 ft | 232 kts | 124° |
| 2026-04-30 07:31 | 48.31202 | 11.32447 | 5996 ft | 222 kts | 111° |
| 2026-04-30 07:31 | 48.30897 | 11.34676 | 5791 ft | 217 kts | 88° |
| 2026-04-30 07:32 | 48.31072 | 11.36894 | 5671 ft | 212 kts | 83° |
| 2026-04-30 07:32 | 48.31260 | 11.39081 | 5542 ft | 212 kts | 83° |
| 2026-04-30 07:32 | 48.31470 | 11.41294 | 5452 ft | 217 kts | 82° |
| 2026-04-30 07:32 | 48.31694 | 11.43583 | 5318 ft | 216 kts | 83° |
| 2026-04-30 07:33 | 48.31867 | 11.45747 | 5178 ft | 207 kts | 84° |
| 2026-04-30 07:33 | 48.32023 | 11.47840 | 5085 ft | 196 kts | 84° |
| 2026-04-30 07:33 | 48.32172 | 11.49837 | 4959 ft | 191 kts | 84° |
| 2026-04-30 07:33 | 48.32319 | 11.51836 | 4680 ft | 192 kts | 85° |
| 2026-04-30 07:34 | 48.32467 | 11.53809 | 4415 ft | 188 kts | 84° |
| 2026-04-30 07:34 | 48.32607 | 11.55746 | 4216 ft | 179 kts | 85° |
| 2026-04-30 07:34 | 48.32745 | 11.57540 | 3968 ft | 172 kts | 85° |
| 2026-04-30 07:34 | 48.32877 | 11.59303 | 3708 ft | 165 kts | 86° |
| 2026-04-30 07:35 | 48.33000 | 11.60933 | 3488 ft | 150 kts | 86° |
| 2026-04-30 07:35 | 48.33115 | 11.62433 | 3291 ft | 137 kts | 85° |
| 2026-04-30 07:35 | 48.33210 | 11.63767 | 3123 ft | 121 kts | 85° |
| 2026-04-30 07:35 | 48.33300 | 11.65016 | 2972 ft | 122 kts | 84° |
| 2026-04-30 07:36 | 48.33383 | 11.66300 | 2869 ft | 123 kts | 85° |
| 2026-04-30 07:36 | 48.33493 | 11.67547 | 2679 ft | 121 kts | 83° |
| 2026-04-30 07:36 | 48.33586 | 11.68801 | 2476 ft | 122 kts | 85° |
| 2026-04-30 07:36 | 48.33684 | 11.70070 | 2257 ft | 121 kts | 84° |
| 2026-04-30 07:37 | 48.33771 | 11.71322 | 2053 ft | 120 kts | 84° |
| 2026-04-30 07:37 | 48.33879 | 11.72571 | 1858 ft | 121 kts | 83° |
| 2026-04-30 07:37 | 48.33968 | 11.73820 | 1704 ft | 119 kts | 83° |
| 2026-04-30 07:37 | 48.34065 | 11.75065 | 1554 ft | 121 kts | 83° |
| 2026-04-30 07:38 | 48.34161 | 11.76289 | 1480 ft | 101 kts | 83° |
| 2026-04-30 07:38 | 48.34216 | 11.77036 | 1481 ft | 44 kts | 84° |
| 2026-04-30 07:38 | 48.34233 | 11.77240 | 1479 ft | 10 kts | 81° |
| 2026-04-30 07:38 | 48.34247 | 11.77349 | 1485 ft | 12 kts | 77° |
| 2026-04-30 07:39 | 48.34284 | 11.77466 | 1481 ft | 13 kts | 56° |
| 2026-04-30 07:39 | 48.34341 | 11.77588 | 1480 ft | 15 kts | 53° |
| 2026-04-30 07:39 | 48.34410 | 11.77725 | 1485 ft | 17 kts | 53° |
| 2026-04-30 07:39 | 48.34484 | 11.77874 | 1476 ft | 18 kts | 53° |
| 2026-04-30 07:40 | 48.34555 | 11.78021 | 1482 ft | 17 kts | 59° |
| 2026-04-30 07:40 | 48.34583 | 11.78197 | 1476 ft | 18 kts | 83° |
| 2026-04-30 07:40 | 48.34595 | 11.78395 | 1481 ft | 20 kts | 86° |
| 2026-04-30 07:40 | 48.34608 | 11.78603 | 1485 ft | 20 kts | 83° |
| 2026-04-30 07:41 | 48.34623 | 11.78793 | 1474 ft | 17 kts | 83° |
| 2026-04-30 07:41 | 48.34636 | 11.78957 | 1478 ft | 14 kts | 83° |
| 2026-04-30 07:41 | 48.34648 | 11.79103 | 1477 ft | 15 kts | 83° |
| 2026-04-30 07:41 | 48.34660 | 11.79268 | 1485 ft | 17 kts | 84° |
| 2026-04-30 07:42 | 48.34672 | 11.79452 | 1485 ft | 19 kts | 85° |
| 2026-04-30 07:42 | 48.34683 | 11.79583 | 1476 ft | 19 kts | 83° |
| 2026-04-30 07:42 | 48.34714 | 11.79708 | 1480 ft | 11 kts | 28° |
| 2026-04-30 07:42 | 48.34799 | 11.79705 | 1480 ft | 14 kts | 353° |
| 2026-04-30 07:43 | 48.34905 | 11.79686 | 1478 ft | 17 kts | 353° |
| 2026-04-30 07:43 | 48.35023 | 11.79665 | 1485 ft | 14 kts | 353° |
| 2026-04-30 07:43 | 48.35101 | 11.79720 | 1482 ft | 15 kts | 79° |
| 2026-04-30 07:43 | 48.35114 | 11.79878 | 1476 ft | 16 kts | 83° |
| 2026-04-30 07:44 | 48.35126 | 11.80047 | 1475 ft | 17 kts | 83° |
| 2026-04-30 07:44 | 48.35157 | 11.80188 | 1482 ft | 12 kts | 23° |
| 2026-04-30 07:44 | 48.35249 | 11.80180 | 1478 ft | 16 kts | 353° |
| 2026-04-30 07:44 | 48.35371 | 11.80159 | 1481 ft | 19 kts | 352° |
| 2026-04-30 07:45 | 48.35510 | 11.80124 | 1479 ft | 20 kts | 354° |
| 2026-04-30 07:45 | 48.35631 | 11.80102 | 1485 ft | 14 kts | 354° |
| 2026-04-30 07:45 | 48.35702 | 11.80082 | 1475 ft | 9 kts | 347° |
| 2026-04-30 07:45 | 48.35747 | 11.80063 | 1482 ft | 3 kts | 307° |
| 2026-04-30 07:46 | 48.35751 | 11.80033 | 1485 ft | 4 kts | 275° |
| 2026-04-30 07:46 | 48.35748 | 11.79981 | 1479 ft | 6 kts | 264° |
| 2026-04-30 07:46 | 48.35745 | 11.79939 | 1479 ft | 2 kts | 263° |
| 2026-04-30 07:46 | 48.35744 | 11.79930 | 1475 ft | 0 kts | 263° |